createdAt,value
2019-05-21T00:00:12.204Z,12.10
2019-05-21T00:02:40.731Z,12.00
2019-05-21T00:05:09.391Z,11.90
2019-05-21T00:07:37.860Z,11.80
2019-05-21T00:10:08.026Z,11.70
2019-05-21T00:12:36.552Z,11.60
2019-05-21T00:15:05.556Z,11.50
2019-05-21T00:17:34.003Z,11.40
2019-05-21T00:20:02.527Z,11.30
2019-05-21T00:22:31.152Z,11.30
2019-05-21T00:24:59.846Z,11.30
2019-05-21T00:27:28.387Z,11.10
2019-05-21T00:30:33.419Z,11.10
2019-05-21T00:33:38.136Z,11.00
2019-05-21T00:36:44.705Z,10.90
2019-05-21T00:39:49.606Z,10.90
2019-05-21T00:42:26.661Z,10.80
2019-05-21T00:44:55.196Z,10.70
2019-05-21T00:47:23.649Z,10.60
2019-05-21T00:49:52.187Z,10.70
2019-05-21T00:52:20.720Z,10.50
2019-05-21T00:54:49.171Z,10.50
2019-05-21T00:57:17.637Z,10.50
2019-05-21T00:59:47.047Z,10.50
2019-05-21T01:02:15.565Z,10.50
2019-05-21T01:04:58.163Z,10.40
2019-05-21T01:07:14.266Z,10.40
2019-05-21T01:09:42.734Z,10.40
2019-05-21T01:12:11.264Z,10.40
2019-05-21T01:14:39.731Z,10.30
2019-05-21T01:17:08.192Z,10.30
2019-05-21T01:19:36.655Z,10.30
2019-05-21T01:22:05.451Z,10.20
2019-05-21T01:24:33.905Z,10.30
2019-05-21T01:27:02.507Z,10.20
2019-05-21T01:29:30.953Z,10.20
2019-05-21T01:31:59.418Z,10.20
2019-05-21T01:34:27.880Z,10.30
2019-05-21T01:36:56.351Z,10.20
2019-05-21T01:39:24.803Z,10.20
2019-05-21T01:41:53.323Z,10.20
2019-05-21T01:44:21.791Z,10.20
2019-05-21T01:46:50.239Z,10.20
2019-05-21T01:49:18.771Z,10.20
2019-05-21T01:51:47.215Z,10.20
2019-05-21T01:54:15.679Z,10.30
2019-05-21T01:56:44.132Z,10.30
2019-05-21T01:59:12.664Z,10.40
2019-05-21T02:01:41.160Z,10.40
2019-05-21T02:04:09.671Z,10.40
2019-05-21T02:06:38.271Z,10.40
2019-05-21T02:09:07.871Z,10.40
2019-05-21T02:11:36.411Z,10.40
2019-05-21T02:14:05.291Z,10.30
2019-05-21T02:16:33.802Z,10.30
2019-05-21T02:19:02.474Z,10.30
2019-05-21T02:21:31.201Z,10.30
2019-05-21T02:23:59.735Z,10.30
2019-05-21T02:26:28.192Z,10.30
2019-05-21T02:28:56.635Z,10.30
2019-05-21T02:31:25.102Z,10.30
2019-05-21T02:33:53.626Z,10.30
2019-05-21T02:36:22.224Z,10.30
2019-05-21T02:38:50.827Z,10.30
2019-05-21T02:41:19.351Z,10.30
2019-05-21T02:43:47.812Z,10.20
2019-05-21T02:46:16.337Z,10.10
2019-05-21T02:48:44.935Z,10.10
2019-05-21T02:51:13.384Z,10.20
2019-05-21T02:53:41.833Z,10.20
2019-05-21T02:56:10.374Z,10.20
2019-05-21T02:58:38.910Z,10.20
2019-05-21T03:01:18.165Z,10.20
2019-05-21T03:03:46.740Z,10.20
2019-05-21T03:06:15.351Z,10.20
2019-05-21T03:08:43.894Z,10.20
2019-05-21T03:11:12.460Z,10.20
2019-05-21T03:13:41.049Z,10.20
2019-05-21T03:16:09.500Z,10.20
2019-05-21T03:18:37.979Z,10.20
2019-05-21T03:21:06.498Z,10.20
2019-05-21T03:23:35.039Z,10.20
2019-05-21T03:26:03.673Z,10.20
2019-05-21T03:28:32.222Z,10.30
2019-05-21T03:31:00.776Z,10.10
2019-05-21T03:33:29.289Z,10.20
2019-05-21T03:35:57.901Z,10.20
2019-05-21T03:38:26.429Z,10.20
2019-05-21T03:40:54.986Z,10.20
2019-05-21T03:43:23.512Z,10.30
2019-05-21T03:45:51.980Z,10.30
2019-05-21T03:48:20.502Z,10.50
2019-05-21T03:50:49.040Z,10.60
2019-05-21T03:53:17.485Z,10.60
2019-05-21T03:55:46.036Z,10.70
2019-05-21T03:58:14.558Z,10.80
2019-05-21T04:00:43.008Z,10.80
2019-05-21T04:03:11.620Z,10.90
2019-05-21T04:05:40.087Z,10.90
2019-05-21T04:08:08.550Z,10.90
2019-05-21T04:10:36.995Z,10.90
2019-05-21T04:13:09.045Z,10.90
2019-05-21T04:15:53.583Z,10.90
2019-05-21T04:18:26.713Z,10.90
2019-05-21T04:20:55.253Z,10.90
2019-05-21T04:23:23.799Z,10.90
2019-05-21T04:25:52.332Z,10.90
2019-05-21T04:28:20.797Z,10.90
2019-05-21T04:30:49.250Z,11.00
2019-05-21T04:33:17.720Z,11.00
2019-05-21T04:35:46.176Z,11.10
2019-05-21T04:38:14.711Z,11.00
2019-05-21T04:40:43.158Z,11.10
2019-05-21T04:43:11.643Z,11.20
2019-05-21T04:45:40.115Z,11.30
2019-05-21T04:48:08.635Z,11.30
2019-05-21T04:50:37.100Z,11.30
2019-05-21T04:53:05.543Z,11.40
2019-05-21T04:55:34.002Z,11.40
2019-05-21T04:58:02.452Z,11.50
2019-05-21T05:00:30.915Z,11.60
2019-05-21T05:02:59.432Z,11.60
2019-05-21T05:05:27.888Z,11.60
2019-05-21T05:07:56.340Z,11.60
2019-05-21T05:10:24.871Z,11.60
2019-05-21T05:12:53.415Z,11.70
2019-05-21T05:15:21.928Z,11.80
2019-05-21T05:17:50.383Z,11.70
2019-05-21T05:20:18.982Z,11.70
2019-05-21T05:22:47.435Z,11.70
2019-05-21T05:25:16.108Z,11.80
2019-05-21T05:27:44.560Z,11.90
2019-05-21T05:30:13.326Z,11.90
2019-05-21T05:32:41.772Z,12.10
2019-05-21T05:35:10.498Z,12.00
2019-05-21T05:37:43.540Z,12.00
2019-05-21T05:40:09.793Z,12.10
2019-05-21T05:42:38.312Z,12.20
2019-05-21T05:45:07.740Z,12.20
2019-05-21T05:47:36.281Z,12.20
2019-05-21T05:50:16.059Z,12.30
2019-05-21T05:52:44.523Z,12.20
2019-05-21T05:55:13.107Z,12.30
2019-05-21T05:57:41.643Z,12.40
2019-05-21T06:00:12.555Z,12.40
2019-05-21T06:02:41.096Z,12.50
2019-05-21T06:05:10.299Z,12.60
2019-05-21T06:07:38.742Z,12.80
2019-05-21T06:10:07.548Z,12.90
2019-05-21T06:12:36.139Z,13.10
2019-05-21T06:15:09.096Z,13.10
2019-05-21T06:17:37.545Z,13.10
2019-05-21T06:20:07.631Z,13.10
2019-05-21T06:22:36.178Z,13.20
2019-05-21T06:25:06.929Z,13.30
2019-05-21T06:27:35.749Z,13.30
2019-05-21T06:30:06.516Z,13.30
2019-05-21T06:32:34.994Z,13.40
2019-05-21T06:35:05.912Z,13.50
2019-05-21T06:37:34.362Z,13.60
2019-05-21T06:40:03.248Z,13.60
2019-05-21T06:42:31.771Z,13.60
2019-05-21T06:45:00.303Z,13.60
2019-05-21T06:47:28.761Z,13.70
2019-05-21T06:49:57.286Z,13.70
2019-05-21T06:52:25.888Z,13.60
2019-05-21T06:54:54.334Z,13.60
2019-05-21T06:57:22.803Z,13.60
2019-05-21T06:59:51.423Z,13.70
2019-05-21T07:02:19.871Z,13.80
2019-05-21T07:04:48.391Z,13.80
2019-05-21T07:07:16.852Z,13.90
2019-05-21T07:09:45.304Z,14.00
2019-05-21T07:12:13.767Z,14.00
2019-05-21T07:14:42.215Z,14.20
2019-05-21T07:17:10.697Z,14.00
2019-05-21T07:19:39.221Z,14.10
2019-05-21T07:22:12.752Z,14.20
2019-05-21T07:24:37.871Z,14.40
2019-05-21T07:27:06.341Z,14.50
2019-05-21T07:29:34.862Z,14.80
2019-05-21T07:32:03.331Z,14.90
2019-05-21T07:34:31.932Z,15.00
2019-05-21T07:37:00.410Z,15.10
2019-05-21T07:39:28.932Z,15.30
2019-05-21T07:41:57.379Z,15.30
2019-05-21T07:44:25.899Z,15.30
2019-05-21T07:46:54.450Z,15.40
2019-05-21T07:49:22.889Z,15.50
2019-05-21T07:51:51.529Z,15.60
2019-05-21T07:54:19.976Z,15.70
2019-05-21T07:56:48.591Z,16.00
2019-05-21T07:59:17.128Z,16.10
2019-05-21T08:01:45.575Z,16.20
2019-05-21T08:04:14.137Z,16.40
2019-05-21T08:06:42.731Z,16.60
2019-05-21T08:09:13.746Z,16.80
2019-05-21T08:11:41.415Z,16.90
2019-05-21T08:14:09.947Z,16.80
2019-05-21T08:16:38.417Z,17.00
2019-05-21T08:19:06.873Z,17.10
2019-05-21T08:21:35.400Z,17.10
2019-05-21T08:24:03.923Z,17.50
2019-05-21T08:26:32.514Z,17.40
2019-05-21T08:29:01.045Z,17.60
2019-05-21T08:31:29.499Z,17.40
2019-05-21T08:33:57.958Z,17.90
2019-05-21T08:36:26.694Z,17.60
2019-05-21T08:38:55.228Z,17.60
2019-05-21T08:41:23.695Z,17.40
2019-05-21T08:43:52.162Z,17.10
2019-05-21T08:46:20.611Z,17.10
2019-05-21T08:48:49.227Z,17.60
2019-05-21T08:51:17.678Z,17.60
2019-05-21T08:53:46.120Z,17.90
2019-05-21T08:56:14.651Z,18.20
2019-05-21T08:58:43.183Z,18.20
2019-05-21T09:01:11.729Z,18.30
2019-05-21T09:03:40.328Z,18.30
2019-05-21T09:06:08.943Z,18.50
2019-05-21T09:08:37.399Z,18.50
2019-05-21T09:11:05.961Z,18.20
2019-05-21T09:13:34.418Z,18.30
2019-05-21T09:16:02.939Z,18.50
2019-05-21T09:18:31.478Z,18.30
2019-05-21T09:20:59.927Z,18.20
2019-05-21T09:23:28.478Z,18.20
2019-05-21T09:25:56.993Z,18.80
2019-05-21T09:28:25.605Z,18.60
2019-05-21T09:30:54.119Z,18.60
2019-05-21T09:33:22.583Z,19.20
2019-05-21T09:35:51.075Z,19.40
2019-05-21T09:38:19.640Z,19.50
2019-05-21T09:40:48.177Z,19.50
2019-05-21T09:43:16.631Z,19.30
2019-05-21T09:45:45.311Z,19.50
2019-05-21T09:48:13.875Z,19.80
2019-05-21T09:50:42.369Z,20.10
2019-05-21T09:53:10.838Z,20.20
2019-05-21T09:55:39.285Z,20.20
2019-05-21T09:58:11.884Z,20.20
2019-05-21T10:00:58.660Z,20.00
2019-05-21T10:03:31.590Z,20.30
2019-05-21T10:06:00.034Z,20.50
2019-05-21T10:08:28.512Z,20.30
2019-05-21T10:10:57.033Z,20.10
2019-05-21T10:13:25.499Z,20.20
2019-05-21T10:15:53.943Z,20.30
2019-05-21T10:18:22.561Z,20.10
2019-05-21T10:20:51.211Z,20.10
2019-05-21T10:23:19.656Z,19.80
2019-05-21T10:25:48.196Z,19.60
2019-05-21T10:28:16.729Z,19.40
2019-05-21T10:30:45.196Z,19.30
2019-05-21T10:33:13.663Z,19.20
2019-05-21T10:35:42.268Z,18.70
2019-05-21T10:38:10.820Z,18.60
2019-05-21T10:40:39.328Z,18.30
2019-05-21T10:43:07.796Z,18.10
2019-05-21T10:45:36.256Z,18.10
2019-05-21T10:48:04.853Z,18.10
2019-05-21T10:50:33.308Z,18.00
2019-05-21T10:53:01.836Z,17.90
2019-05-21T10:55:30.381Z,17.80
2019-05-21T10:57:59.007Z,17.90
2019-05-21T11:00:28.443Z,17.90
2019-05-21T11:03:01.576Z,17.80
2019-05-21T11:05:34.429Z,17.80
2019-05-21T11:08:22.858Z,18.40
2019-05-21T11:10:33.288Z,18.50
2019-05-21T11:13:01.819Z,18.70
2019-05-21T11:15:30.386Z,18.70
2019-05-21T11:18:10.577Z,19.00
2019-05-21T11:20:29.871Z,18.80
2019-05-21T11:22:58.564Z,18.60
2019-05-21T11:25:27.136Z,18.20
2019-05-21T11:27:55.729Z,18.20
2019-05-21T11:30:24.266Z,18.20
2019-05-21T11:32:52.714Z,18.40
2019-05-21T11:35:21.796Z,18.40
2019-05-21T11:37:50.387Z,18.60
2019-05-21T11:40:21.061Z,18.60
2019-05-21T11:42:52.801Z,18.40
2019-05-21T11:45:31.567Z,18.70
2019-05-21T11:47:50.265Z,18.90
2019-05-21T11:50:19.023Z,19.10
2019-05-21T11:52:47.556Z,19.10
2019-05-21T11:55:16.140Z,18.80
2019-05-21T11:57:44.675Z,18.70
2019-05-21T12:00:14.070Z,18.40
2019-05-21T12:02:42.557Z,18.70
2019-05-21T12:05:11.628Z,18.60
2019-05-21T12:07:40.075Z,18.60
2019-05-21T12:10:09.338Z,18.60
2019-05-21T12:12:37.870Z,18.60
2019-05-21T12:15:07.753Z,18.60
2019-05-21T12:17:36.335Z,18.50
2019-05-21T12:20:09.207Z,18.40
2019-05-21T12:22:37.735Z,18.30
2019-05-21T12:25:07.008Z,18.20
2019-05-21T12:27:35.551Z,18.20
2019-05-21T12:30:07.479Z,18.20
2019-05-21T12:32:36.025Z,18.50
2019-05-21T12:35:05.579Z,18.50
2019-05-21T12:37:34.294Z,18.40
2019-05-21T12:40:03.084Z,18.40
2019-05-21T12:42:31.536Z,18.40
2019-05-21T12:44:59.996Z,18.50
2019-05-21T12:47:28.527Z,18.40
2019-05-21T12:49:56.975Z,18.50
2019-05-21T12:52:25.445Z,18.60
2019-05-21T12:54:53.907Z,18.60
2019-05-21T12:57:22.355Z,18.40
2019-05-21T12:59:50.839Z,18.60
2019-05-21T13:02:19.416Z,18.70
2019-05-21T13:04:47.879Z,18.50
2019-05-21T13:07:16.351Z,18.40
2019-05-21T13:09:44.998Z,18.50
2019-05-21T13:12:13.447Z,18.30
2019-05-21T13:14:41.985Z,18.40
2019-05-21T13:17:10.509Z,18.30
2019-05-21T13:19:39.031Z,18.30
2019-05-21T13:22:07.666Z,18.50
2019-05-21T13:24:36.189Z,18.20
2019-05-21T13:27:05.935Z,18.10
2019-05-21T13:29:34.403Z,18.20
2019-05-21T13:32:02.928Z,18.20
2019-05-21T13:34:31.451Z,18.10
2019-05-21T13:36:59.990Z,18.20
2019-05-21T13:39:28.503Z,18.30
2019-05-21T13:41:57.039Z,18.40
2019-05-21T13:44:25.510Z,18.20
2019-05-21T13:46:54.023Z,18.00
2019-05-21T13:49:22.499Z,18.10
2019-05-21T13:51:51.043Z,18.10
2019-05-21T13:54:19.576Z,17.80
2019-05-21T13:56:48.092Z,17.90
2019-05-21T13:59:16.889Z,17.70
2019-05-21T14:01:45.364Z,17.80
2019-05-21T14:04:14.331Z,17.80
2019-05-21T14:06:42.787Z,17.90
2019-05-21T14:09:11.416Z,17.80
2019-05-21T14:11:39.928Z,17.70
2019-05-21T14:14:08.706Z,17.60
2019-05-21T14:16:37.194Z,17.70
2019-05-21T14:19:05.682Z,17.60
2019-05-21T14:21:34.196Z,17.60
2019-05-21T14:24:02.687Z,17.60
2019-05-21T14:26:31.202Z,17.50
2019-05-21T14:28:59.725Z,17.40
2019-05-21T14:31:28.256Z,17.50
2019-05-21T14:33:56.732Z,17.50
2019-05-21T14:36:25.385Z,17.50
2019-05-21T14:38:53.985Z,17.70
2019-05-21T14:41:22.516Z,17.70
2019-05-21T14:43:50.960Z,17.70
2019-05-21T14:46:19.521Z,17.80
2019-05-21T14:48:48.044Z,17.80
2019-05-21T14:51:16.761Z,17.60
2019-05-21T14:53:45.288Z,17.70
2019-05-21T14:56:13.735Z,17.60
2019-05-21T14:58:42.195Z,17.70
2019-05-21T15:01:10.796Z,17.60
2019-05-21T15:03:39.243Z,17.50
2019-05-21T15:06:07.713Z,17.60
2019-05-21T15:08:36.244Z,17.40
2019-05-21T15:11:04.829Z,17.50
2019-05-21T15:13:33.300Z,17.30
2019-05-21T15:16:01.772Z,17.20
2019-05-21T15:18:30.288Z,17.30
2019-05-21T15:21:00.407Z,17.30
2019-05-21T15:23:28.915Z,17.30
2019-05-21T15:25:57.381Z,17.20
2019-05-21T15:28:25.847Z,17.30
2019-05-21T15:30:54.452Z,17.20
2019-05-21T15:33:22.905Z,17.20
2019-05-21T15:35:51.380Z,17.20
2019-05-21T15:38:19.901Z,17.20
2019-05-21T15:41:06.637Z,17.30
2019-05-21T15:43:18.690Z,17.40
2019-05-21T15:45:47.292Z,17.40
2019-05-21T15:48:15.834Z,17.30
2019-05-21T15:50:44.279Z,17.40
2019-05-21T15:53:12.745Z,17.40
2019-05-21T15:55:41.265Z,17.40
2019-05-21T15:58:09.792Z,17.40
2019-05-21T16:00:38.388Z,17.40
2019-05-21T16:03:06.928Z,17.40
2019-05-21T16:05:35.461Z,17.40
2019-05-21T16:08:04.643Z,17.40
2019-05-21T16:10:33.282Z,17.40
2019-05-21T16:13:01.799Z,17.50
2019-05-21T16:15:30.570Z,17.60
2019-05-21T16:17:59.112Z,17.70
2019-05-21T16:20:27.647Z,17.60
2019-05-21T16:22:56.289Z,17.70
2019-05-21T16:25:24.944Z,17.70
2019-05-21T16:27:53.414Z,17.70
2019-05-21T16:30:22.144Z,17.70
2019-05-21T16:32:50.605Z,17.80
2019-05-21T16:35:19.318Z,17.60
2019-05-21T16:37:47.835Z,17.70
2019-05-21T16:40:17.087Z,17.70
2019-05-21T16:42:45.614Z,17.90
2019-05-21T16:45:14.624Z,18.10
2019-05-21T16:47:46.278Z,18.20
2019-05-21T16:50:14.108Z,18.40
2019-05-21T16:52:42.639Z,18.50
2019-05-21T16:55:11.355Z,18.60
2019-05-21T16:57:39.996Z,18.90
2019-05-21T17:00:09.615Z,19.10
2019-05-21T17:02:38.173Z,19.40
2019-05-21T17:05:07.235Z,19.70
2019-05-21T17:07:35.764Z,19.90
2019-05-21T17:10:06.461Z,20.00
2019-05-21T17:12:34.973Z,19.50
2019-05-21T17:15:04.875Z,19.20
2019-05-21T17:17:33.398Z,18.80
2019-05-21T17:20:02.469Z,18.40
2019-05-21T17:22:31.289Z,18.20
2019-05-21T17:24:59.824Z,18.40
2019-05-21T17:27:28.271Z,18.80
2019-05-21T17:29:56.736Z,19.10
2019-05-21T17:32:25.271Z,19.20
2019-05-21T17:34:53.789Z,18.90
2019-05-21T17:37:22.327Z,18.80
2019-05-21T17:39:50.945Z,18.50
2019-05-21T17:42:19.613Z,18.30
2019-05-21T17:44:48.177Z,18.10
2019-05-21T17:47:16.738Z,17.80
2019-05-21T17:49:45.340Z,17.60
2019-05-21T17:52:13.927Z,17.40
2019-05-21T17:54:55.611Z,17.20
2019-05-21T17:57:12.861Z,17.00
2019-05-21T17:59:41.443Z,16.80
2019-05-21T18:02:11.691Z,16.50
2019-05-21T18:04:40.150Z,16.40
2019-05-21T18:07:08.757Z,16.30
2019-05-21T18:09:37.775Z,16.30
2019-05-21T18:12:07.490Z,16.10
2019-05-21T18:14:37.052Z,16.10
2019-05-21T18:17:05.679Z,16.00
2019-05-21T18:19:35.386Z,16.00
2019-05-21T18:22:06.161Z,15.90
2019-05-21T18:24:34.999Z,15.80
2019-05-21T18:27:03.569Z,15.70
2019-05-21T18:29:32.052Z,15.70
2019-05-21T18:32:00.499Z,15.50
2019-05-21T18:34:29.099Z,15.40
2019-05-21T18:36:57.632Z,15.30
2019-05-21T18:39:26.514Z,15.30
2019-05-21T18:41:55.044Z,15.20
2019-05-21T18:44:23.571Z,15.10
2019-05-21T18:46:52.332Z,15.10
2019-05-21T18:49:20.792Z,14.90
2019-05-21T18:51:49.316Z,14.80
2019-05-21T18:54:17.848Z,14.70
2019-05-21T18:56:46.380Z,14.60
2019-05-21T18:59:14.856Z,14.70
2019-05-21T19:01:43.302Z,14.70
2019-05-21T19:04:11.903Z,14.70
2019-05-21T19:06:40.463Z,14.70
2019-05-21T19:09:09.036Z,14.60
2019-05-21T19:11:37.826Z,14.60
2019-05-21T19:14:06.511Z,14.50
2019-05-21T19:16:34.976Z,14.50
2019-05-21T19:19:03.419Z,14.40
2019-05-21T19:21:31.868Z,14.30
2019-05-21T19:24:00.331Z,14.30
2019-05-21T19:26:29.025Z,14.30
2019-05-21T19:28:57.563Z,14.30
2019-05-21T19:31:26.019Z,14.40
2019-05-21T19:33:54.486Z,14.40
2019-05-21T19:36:22.954Z,14.40
2019-05-21T19:38:51.576Z,14.40
2019-05-21T19:41:20.180Z,14.40
2019-05-21T19:43:56.249Z,14.40
2019-05-21T19:46:24.779Z,14.40
2019-05-21T19:48:53.227Z,14.30
2019-05-21T19:51:21.703Z,14.30
2019-05-21T19:53:50.155Z,14.30
2019-05-21T19:56:18.612Z,14.20
2019-05-21T19:58:47.248Z,14.10
2019-05-21T20:01:15.766Z,14.00
2019-05-21T20:03:44.379Z,14.10
2019-05-21T20:06:14.891Z,14.10
2019-05-21T20:08:43.664Z,14.10
2019-05-21T20:11:12.179Z,14.10
2019-05-21T20:13:40.724Z,14.10
2019-05-21T20:16:10.181Z,14.00
2019-05-21T20:18:39.386Z,13.90
2019-05-21T20:21:08.760Z,13.90
2019-05-21T20:23:38.432Z,13.80
2019-05-21T20:26:10.466Z,13.70
2019-05-21T20:28:39.003Z,13.70
2019-05-21T20:31:08.587Z,13.70
2019-05-21T20:33:38.323Z,13.60
2019-05-21T20:36:08.111Z,13.50
2019-05-21T20:38:37.676Z,13.40
2019-05-21T20:41:06.372Z,13.40
2019-05-21T20:43:35.332Z,13.30
2019-05-21T20:46:03.854Z,13.20
2019-05-21T20:48:34.094Z,13.10
2019-05-21T20:51:04.247Z,13.10
2019-05-21T20:53:33.693Z,13.00
2019-05-21T20:56:02.151Z,13.00
2019-05-21T20:58:30.700Z,13.00
2019-05-21T21:01:00.809Z,13.00
2019-05-21T21:03:29.570Z,13.00
2019-05-21T21:05:58.276Z,13.10
2019-05-21T21:08:28.067Z,13.10
2019-05-21T21:10:56.599Z,13.00
2019-05-21T21:13:25.319Z,12.90
2019-05-21T21:15:53.857Z,12.80
2019-05-21T21:18:22.745Z,12.50
2019-05-21T21:20:51.263Z,12.40
2019-05-21T21:23:21.805Z,12.40
2019-05-21T21:25:50.318Z,12.30
2019-05-21T21:28:18.845Z,12.40
2019-05-21T21:30:48.035Z,12.40
2019-05-21T21:33:17.416Z,12.50
2019-05-21T21:35:46.316Z,12.50
2019-05-21T21:38:14.996Z,12.60
2019-05-21T21:40:43.582Z,12.70
2019-05-21T21:43:12.360Z,12.70
2019-05-21T21:45:41.624Z,12.60
2019-05-21T21:48:10.515Z,12.60
2019-05-21T21:50:39.502Z,12.60
2019-05-21T21:53:08.156Z,12.60
2019-05-21T21:55:37.087Z,12.60
2019-05-21T21:58:05.668Z,12.60
2019-05-21T22:00:59.937Z,12.50
2019-05-21T22:03:30.954Z,12.30
2019-05-21T22:06:01.096Z,12.40
2019-05-21T22:08:31.268Z,12.40
2019-05-21T22:11:00.263Z,12.40
2019-05-21T22:13:29.146Z,12.50
2019-05-21T22:15:58.231Z,12.60
2019-05-21T22:18:27.519Z,12.60
2019-05-21T22:20:56.449Z,12.60
2019-05-21T22:23:25.253Z,12.50
2019-05-21T22:25:53.953Z,12.40
2019-05-21T22:28:23.075Z,12.40
2019-05-21T22:30:52.247Z,12.30
2019-05-21T22:33:21.074Z,12.20
2019-05-21T22:35:49.609Z,12.30
2019-05-21T22:38:18.058Z,12.20
2019-05-21T22:40:46.583Z,12.10
2019-05-21T22:43:15.119Z,12.10
2019-05-21T22:45:43.657Z,12.10
2019-05-21T22:48:12.394Z,12.10
2019-05-21T22:50:40.847Z,12.00
2019-05-21T22:53:09.452Z,11.80
2019-05-21T22:55:37.971Z,11.80
2019-05-21T22:58:06.599Z,11.90
2019-05-21T23:00:35.475Z,11.90
2019-05-21T23:03:04.466Z,12.00
2019-05-21T23:05:32.992Z,12.00
2019-05-21T23:08:02.680Z,12.00
2019-05-21T23:10:31.488Z,12.10
2019-05-21T23:12:59.935Z,12.10
2019-05-21T23:15:28.451Z,12.10
2019-05-21T23:17:56.906Z,12.20
2019-05-21T23:20:28.856Z,12.30
2019-05-21T23:22:57.393Z,12.40
2019-05-21T23:25:27.360Z,12.40
2019-05-21T23:27:55.898Z,12.40
2019-05-21T23:30:25.186Z,12.50
2019-05-21T23:32:53.717Z,12.50
2019-05-21T23:35:22.528Z,12.40
2019-05-21T23:37:51.687Z,12.30
2019-05-21T23:40:22.176Z,12.30
2019-05-21T23:42:50.857Z,12.30
2019-05-21T23:45:20.304Z,12.20
2019-05-21T23:47:49.205Z,12.30
2019-05-21T23:50:20.604Z,12.30
2019-05-21T23:52:49.200Z,12.20
2019-05-21T23:55:17.808Z,12.30
2019-05-21T23:57:46.918Z,12.20
